Time;durP1;ratioP1;P1;durP2;ratioP2;P2;SDS_P1;SDS_P2;PMS_P1;PMS_P2;Temp;Humidity;BMP_temperature;BMP_pressure;BME280_temperature;BME280_humidity;BME280_pressure;Samples;Min_cycle;Max_cycle;Signal;HPM_P1;HPM_P2
2022/07/17 00:01:05;;;;;;;7.07;3.90;;;;;;;17.75;58.58;102180.50;5057875;28;20177;-68
2022/07/17 00:03:30;;;;;;;8.70;3.87;;;;;;;17.23;59.41;102181.16;5057736;28;20177;-66
2022/07/17 00:05:56;;;;;;;11.70;4.23;;;;;;;17.48;58.29;102184.78;5058471;28;20162;-67
2022/07/17 00:08:21;;;;;;;7.67;4.00;;;;;;;18.03;57.53;102172.66;5057804;28;20169;-68
2022/07/17 00:10:47;;;;;;;6.47;3.97;;;;;;;17.60;57.56;102178.69;5057470;28;20500;-67
2022/07/17 00:13:12;;;;;;;6.37;3.50;;;;;;;16.98;59.19;102182.75;5058171;28;20185;-65
2022/07/17 00:15:37;;;;;;;7.23;3.90;;;;;;;17.52;59.19;102177.75;5057822;28;20535;-65
2022/07/17 00:18:03;;;;;;;7.77;4.10;;;;;;;17.33;59.40;102174.16;5057571;28;20201;-64
2022/07/17 00:20:29;;;;;;;13.47;4.37;;;;;;;17.23;59.22;102175.00;5058396;28;20504;-65
2022/07/17 00:22:55;;;;;;;8.43;3.93;;;;;;;17.20;59.39;102190.78;5059080;28;20207;-65
2022/07/17 00:25:21;;;;;;;6.20;3.90;;;;;;;16.73;60.64;102190.47;5061435;28;20430;-64
2022/07/17 00:27:47;;;;;;;5.97;3.80;;;;;;;16.95;60.22;102185.38;5062136;28;20170;-63
2022/07/17 00:30:12;;;;;;;6.50;4.03;;;;;;;16.70;61.25;102190.47;5061824;28;20459;-64
2022/07/17 00:32:38;;;;;;;9.50;4.40;;;;;;;17.28;58.96;102187.34;5061383;28;20185;-64
2022/07/17 00:35:04;;;;;;;8.33;4.13;;;;;;;17.54;58.68;102186.56;5061485;28;20426;-65
2022/07/17 00:37:29;;;;;;;4.60;3.57;;;;;;;17.50;58.65;102180.38;5061358;28;20174;-65
2022/07/17 00:39:55;;;;;;;6.43;4.10;;;;;;;17.20;59.13;102182.88;5061513;28;20170;-64
2022/07/17 00:42:20;;;;;;;6.50;3.63;;;;;;;17.51;58.99;102182.16;5061692;28;20227;-66
2022/07/17 00:44:46;;;;;;;7.83;4.33;;;;;;;17.07;59.76;102188.09;5061246;28;20204;-65
2022/07/17 00:47:16;;;;;;;4.20;3.40;;;;;;;17.73;58.05;102178.72;5061353;28;20199;-64
2022/07/17 00:49:41;;;;;;;7.47;4.17;;;;;;;16.06;61.89;102178.50;5061408;28;20231;-65
2022/07/17 00:52:07;;;;;;;6.70;3.80;;;;;;;15.95;62.66;102175.78;5061534;28;20395;-66
2022/07/17 00:54:35;;;;;;;8.13;4.27;;;;;;;15.87;63.67;102174.81;5060812;28;20217;-65
2022/07/17 00:57:02;;;;;;;11.30;4.40;;;;;;;15.24;65.28;102174.03;5061105;28;20655;-64
2022/07/17 00:59:28;;;;;;;8.67;4.53;;;;;;;15.75;64.19;102180.78;5060440;28;20416;-66
2022/07/17 01:01:53;;;;;;;6.40;3.90;;;;;;;15.47;64.39;102177.81;5060488;28;20413;-66
2022/07/17 01:04:19;;;;;;;8.80;4.40;;;;;;;15.33;65.33;102176.78;5061393;28;20387;-67
2022/07/17 01:06:44;;;;;;;10.97;4.70;;;;;;;15.53;65.09;102184.00;5061332;28;20181;-68
2022/07/17 01:09:10;;;;;;;7.23;4.20;;;;;;;15.26;65.17;102175.81;5060182;28;20184;-66
2022/07/17 01:11:36;;;;;;;12.23;4.60;;;;;;;15.18;65.69;102185.34;5062003;28;20196;-67
2022/07/17 01:14:02;;;;;;;5.67;3.90;;;;;;;15.07;66.33;102187.81;5060719;28;20437;-67
2022/07/17 01:16:27;;;;;;;8.10;4.40;;;;;;;14.98;66.79;102183.28;5060918;28;20173;-67
2022/07/17 01:18:53;;;;;;;9.00;4.40;;;;;;;15.09;66.42;102188.69;5061446;28;20596;-66
2022/07/17 01:21:19;;;;;;;6.80;4.40;;;;;;;14.94;66.40;102192.00;5060854;28;20173;-67
2022/07/17 01:23:44;;;;;;;10.53;4.33;;;;;;;14.87;66.74;102183.97;5060596;28;20661;-68
2022/07/17 01:26:09;;;;;;;7.30;4.20;;;;;;;14.74;67.38;102191.69;5061286;28;20291;-67
2022/07/17 01:28:35;;;;;;;7.80;4.33;;;;;;;14.75;67.16;102196.06;5060697;28;20173;-67
2022/07/17 01:31:01;;;;;;;6.30;4.40;;;;;;;14.62;67.56;102200.19;5060514;28;20491;-67
2022/07/17 01:33:26;;;;;;;6.17;4.30;;;;;;;14.61;67.93;102201.09;5060292;28;20168;-67
2022/07/17 01:35:52;;;;;;;9.83;4.50;;;;;;;14.99;66.94;102198.19;5060249;28;20248;-67
2022/07/17 01:38:17;;;;;;;7.30;4.63;;;;;;;14.64;67.54;102195.03;5060433;28;20180;-67
2022/07/17 01:40:42;;;;;;;7.40;4.47;;;;;;;14.80;67.14;102190.88;5060740;28;20364;-66
2022/07/17 01:43:08;;;;;;;6.97;4.40;;;;;;;14.61;67.61;102195.84;5059654;28;20602;-67
2022/07/17 01:45:34;;;;;;;7.57;4.53;;;;;;;14.52;68.26;102205.28;5060334;28;20192;-68
2022/07/17 01:48:00;;;;;;;8.90;3.93;;;;;;;14.62;67.37;102207.19;5060632;28;20162;-66
2022/07/17 01:50:25;;;;;;;7.30;4.90;;;;;;;14.84;66.60;102197.94;5060329;28;20434;-66
2022/07/17 01:52:50;;;;;;;9.97;4.70;;;;;;;14.95;66.35;102201.63;5060235;28;20173;-66
2022/07/17 01:55:16;;;;;;;12.77;4.70;;;;;;;14.84;66.56;102207.56;5060392;28;20244;-67
2022/07/17 01:57:42;;;;;;;12.03;4.80;;;;;;;15.03;65.98;102204.34;5060067;28;20170;-66
2022/07/17 02:00:11;;;;;;;8.17;4.93;;;;;;;14.97;66.41;102204.28;5060025;28;20197;-66
2022/07/17 02:02:36;;;;;;;6.97;4.17;;;;;;;15.14;65.85;102200.16;5060258;28;20804;-66
2022/07/17 02:05:02;;;;;;;8.83;4.67;;;;;;;14.94;65.98;102197.25;5060114;28;20425;-66
2022/07/17 02:07:27;;;;;;;8.07;4.20;;;;;;;14.94;66.11;102196.38;5059814;28;20173;-66
2022/07/17 02:09:53;;;;;;;4.53;3.93;;;;;;;14.55;67.14;102202.72;5059981;28;20190;-67
2022/07/17 02:12:19;;;;;;;8.80;4.70;;;;;;;14.92;65.71;102200.69;5059708;28;20193;-66
2022/07/17 02:14:44;;;;;;;5.47;4.03;;;;;;;14.85;66.55;102190.97;5059424;28;20665;-66
2022/07/17 02:17:10;;;;;;;6.87;4.40;;;;;;;15.01;65.21;102195.59;5060094;28;20189;-66
2022/07/17 02:19:35;;;;;;;7.23;4.37;;;;;;;14.77;66.27;102196.09;5059588;28;20177;-66
2022/07/17 02:22:00;;;;;;;7.50;4.23;;;;;;;15.04;65.57;102195.63;5059734;28;20240;-67
2022/07/17 02:24:26;;;;;;;8.53;4.20;;;;;;;15.07;65.75;102206.19;5059710;28;20233;-67
2022/07/17 02:26:51;;;;;;;9.03;4.40;;;;;;;15.00;65.59;102199.06;5059442;28;20562;-67
2022/07/17 02:29:16;;;;;;;5.77;4.20;;;;;;;14.78;65.93;102197.88;5059325;28;20166;-67
2022/07/17 02:31:45;;;;;;;6.70;4.33;;;;;;;15.08;65.42;102204.44;5059535;28;20164;-66
2022/07/17 02:34:10;;;;;;;7.23;4.27;;;;;;;15.12;64.98;102207.13;5059234;28;20219;-67
2022/07/17 02:36:36;;;;;;;7.60;4.33;;;;;;;14.98;65.37;102220.06;5059081;28;20462;-66
2022/07/17 02:39:01;;;;;;;8.30;4.90;;;;;;;15.03;65.09;102220.13;5059823;28;20190;-67
2022/07/17 02:41:27;;;;;;;8.30;4.50;;;;;;;14.85;65.90;102231.22;5059158;28;20166;-66
2022/07/17 02:43:52;;;;;;;8.73;4.47;;;;;;;14.93;65.49;102220.84;5058903;28;20165;-66
2022/07/17 02:46:18;;;;;;;8.30;4.20;;;;;;;15.11;65.25;102230.75;5058544;28;20241;-66
2022/07/17 02:48:43;;;;;;;12.30;4.77;;;;;;;14.87;65.46;102236.50;5059200;28;20169;-66
2022/07/17 02:51:09;;;;;;;10.03;4.63;;;;;;;14.88;65.86;102238.28;5058853;28;20586;-67
2022/07/17 02:53:34;;;;;;;6.67;4.20;;;;;;;15.07;64.95;102232.47;5058973;28;20671;-67
2022/07/17 02:56:00;;;;;;;12.97;5.53;;;;;;;15.16;65.15;102231.69;5059539;28;20197;-67
2022/07/17 02:58:25;;;;;;;7.10;4.73;;;;;;;14.98;65.33;102232.31;5059059;28;20201;-67
2022/07/17 03:00:51;;;;;;;11.00;4.43;;;;;;;14.96;65.08;102244.53;5058942;28;20252;-66
2022/07/17 03:03:19;;;;;;;6.90;4.50;;;;;;;15.08;65.22;102244.72;5058706;28;20154;-67
2022/07/17 03:05:45;;;;;;;6.43;3.83;;;;;;;15.01;65.98;102249.88;5059030;28;20436;-67
2022/07/17 03:08:10;;;;;;;8.80;4.23;;;;;;;15.07;65.20;102258.72;5058691;28;20390;-67
2022/07/17 03:10:36;;;;;;;7.40;5.20;;;;;;;15.40;64.38;102252.19;5058966;28;20593;-67
2022/07/17 03:13:01;;;;;;;8.90;4.17;;;;;;;15.47;64.41;102259.28;5059084;28;20172;-66
2022/07/17 03:15:27;;;;;;;8.17;4.63;;;;;;;15.11;65.11;102268.41;5058585;28;20383;-66
2022/07/17 03:17:52;;;;;;;6.77;4.27;;;;;;;15.19;65.47;102252.75;5058741;28;20165;-66
2022/07/17 03:20:17;;;;;;;9.77;4.23;;;;;;;15.39;64.68;102253.03;5058875;28;20211;-67
2022/07/17 03:22:43;;;;;;;7.83;4.00;;;;;;;15.53;64.12;102249.72;5058500;28;20503;-67
2022/07/17 03:25:09;;;;;;;6.23;4.40;;;;;;;15.48;64.39;102240.03;5058457;28;20224;-67
2022/07/17 03:27:34;;;;;;;5.27;3.77;;;;;;;15.30;65.17;102237.13;5059141;28;20171;-67
2022/07/17 03:30:00;;;;;;;5.87;3.90;;;;;;;15.28;64.98;102233.63;5058327;28;20470;-66
2022/07/17 03:32:25;;;;;;;5.70;4.00;;;;;;;15.51;64.80;102218.16;5058352;28;20174;-66
2022/07/17 03:34:50;;;;;;;6.77;5.50;;;;;;;15.74;63.55;102215.81;5058478;28;20180;-66
2022/07/17 03:37:16;;;;;;;12.57;4.43;;;;;;;15.66;63.97;102215.72;5058250;28;20239;-66
2022/07/17 03:39:41;;;;;;;7.23;4.30;;;;;;;15.45;64.81;102208.47;5058158;28;20196;-66
2022/07/17 03:42:07;;;;;;;8.07;4.60;;;;;;;15.26;65.55;102207.34;5059151;28;20165;-65
2022/07/17 03:44:32;;;;;;;8.30;4.50;;;;;;;15.20;66.12;102212.50;5058006;28;20190;-66
2022/07/17 03:46:57;;;;;;;8.07;4.70;;;;;;;15.32;65.20;102217.91;5057981;28;20531;-66
2022/07/17 03:49:24;;;;;;;8.23;4.30;;;;;;;15.54;65.24;102214.69;5058537;28;20241;-67
2022/07/17 03:51:49;;;;;;;7.77;5.13;;;;;;;15.44;65.68;102227.72;5057835;28;20174;-66
2022/07/17 03:54:15;;;;;;;8.30;4.20;;;;;;;15.59;65.19;102231.41;5057763;28;20566;-66
2022/07/17 03:56:40;;;;;;;6.97;4.20;;;;;;;15.74;64.74;102236.84;5058059;28;20195;-66
2022/07/17 03:59:05;;;;;;;5.33;4.30;;;;;;;15.73;64.61;102244.72;5057873;28;20173;-66
2022/07/17 04:01:31;;;;;;;5.33;4.53;;;;;;;15.71;64.74;102246.44;5057805;28;20208;-66
2022/07/17 04:03:56;;;;;;;7.33;4.57;;;;;;;15.60;64.68;102255.09;5058271;28;20170;-67
2022/07/17 04:06:21;;;;;;;8.10;4.97;;;;;;;15.57;65.52;102255.03;5057799;28;20165;-67
2022/07/17 04:08:47;;;;;;;8.83;4.57;;;;;;;15.40;65.79;102252.19;5057808;28;20244;-66
2022/07/17 04:11:12;;;;;;;5.80;4.53;;;;;;;15.44;65.44;102259.25;5058097;28;20555;-66
2022/07/17 04:13:38;;;;;;;6.30;4.73;;;;;;;15.56;65.36;102253.28;5057572;28;20181;-66
2022/07/17 04:16:04;;;;;;;5.00;4.13;;;;;;;15.54;65.19;102246.25;5057595;28;20170;-66
2022/07/17 04:18:32;;;;;;;5.97;4.00;;;;;;;15.59;64.78;102244.56;5058024;28;20162;-66
2022/07/17 04:21:01;;;;;;;7.10;4.10;;;;;;;15.67;64.58;102245.53;5057701;28;20465;-66
2022/07/17 04:23:26;;;;;;;4.43;3.90;;;;;;;16.02;63.88;102250.38;5057535;28;20663;-67
2022/07/17 04:25:52;;;;;;;5.73;4.20;;;;;;;15.94;64.10;102255.53;5058243;28;20491;-66
2022/07/17 04:28:18;;;;;;;5.77;4.20;;;;;;;16.12;63.28;102251.34;5057731;28;20248;-67
2022/07/17 04:30:43;;;;;;;8.20;4.40;;;;;;;15.81;63.72;102251.84;5056910;28;20197;-67
2022/07/17 04:33:08;;;;;;;8.77;4.60;;;;;;;15.97;63.71;102244.16;5057942;28;20173;-67
2022/07/17 04:35:34;;;;;;;7.43;3.90;;;;;;;15.98;63.92;102243.31;5057577;28;20177;-67
2022/07/17 04:38:00;;;;;;;5.27;3.97;;;;;;;16.04;63.44;102251.25;5057529;28;20170;-67
2022/07/17 04:40:25;;;;;;;5.23;4.13;;;;;;;15.88;63.99;102244.06;5057928;28;20567;-68
2022/07/17 04:42:50;;;;;;;6.77;4.20;;;;;;;16.33;63.21;102237.50;5057465;28;20226;-67
2022/07/17 04:45:16;;;;;;;6.37;4.03;;;;;;;16.07;63.65;102239.88;5057352;28;20189;-67
2022/07/17 04:47:42;;;;;;;6.37;4.03;;;;;;;16.11;62.99;102239.91;5057875;28;20170;-67
2022/07/17 04:50:08;;;;;;;11.63;4.67;;;;;;;16.23;62.91;102233.03;5057374;28;20198;-66
2022/07/17 04:52:34;;;;;;;9.30;4.80;;;;;;;16.65;62.03;102218.50;5057426;28;20174;-66
2022/07/17 04:54:59;;;;;;;9.20;4.63;;;;;;;16.80;61.92;102226.50;5057246;28;20487;-68
2022/07/17 04:57:25;;;;;;;6.10;3.70;;;;;;;16.61;61.52;102229.88;5057574;28;20438;-66
2022/07/17 04:59:50;;;;;;;6.37;4.30;;;;;;;16.08;63.31;102228.50;5058284;28;20165;-66
2022/07/17 05:02:15;;;;;;;6.40;4.47;;;;;;;16.52;62.59;102227.16;5057291;28;20166;-66
2022/07/17 05:04:41;;;;;;;6.37;4.67;;;;;;;16.61;62.01;102225.47;5056999;28;20588;-69
2022/07/17 05:07:06;;;;;;;10.87;5.77;;;;;;;16.43;62.55;102225.34;5057560;28;20248;-69
2022/07/17 05:09:32;;;;;;;5.60;4.43;;;;;;;15.90;63.65;102229.16;5059103;28;20221;-68
2022/07/17 05:11:57;;;;;;;6.70;4.40;;;;;;;16.21;63.27;102233.03;5061039;28;20177;-66
2022/07/17 05:14:22;;;;;;;8.13;4.20;;;;;;;16.20;62.73;102238.28;5061129;28;20180;-67
2022/07/17 05:16:48;;;;;;;8.00;4.47;;;;;;;16.04;63.60;102230.22;5060940;28;20620;-66
2022/07/17 05:19:13;;;;;;;5.40;4.10;;;;;;;16.55;61.86;102227.19;5060795;28;20162;-66
2022/07/17 05:21:38;;;;;;;7.77;4.20;;;;;;;16.80;61.77;102229.13;5061124;28;20201;-66
2022/07/17 05:24:04;;;;;;;8.60;4.30;;;;;;;16.27;62.47;102233.06;5060655;28;20175;-68
2022/07/17 05:26:29;;;;;;;6.20;4.90;;;;;;;16.77;60.87;102239.66;5060854;28;20170;-66
2022/07/17 05:28:55;;;;;;;4.80;3.67;;;;;;;16.82;60.68;102247.63;5061143;28;20173;-67
2022/07/17 05:31:20;;;;;;;8.47;3.90;;;;;;;16.76;61.06;102248.44;5060522;28;20225;-66
2022/07/17 05:33:46;;;;;;;5.80;3.90;;;;;;;16.65;61.76;102256.22;5060432;28;20169;-66
2022/07/17 05:36:11;;;;;;;7.67;3.83;;;;;;;17.16;60.36;102259.28;5060823;28;20283;-68
2022/07/17 05:38:37;;;;;;;6.50;4.30;;;;;;;16.85;61.14;102258.16;5060600;28;20180;-66
2022/07/17 05:41:03;;;;;;;6.83;4.07;;;;;;;17.57;59.48;102251.63;5060535;28;20196;-67
2022/07/17 05:43:28;;;;;;;6.27;3.90;;;;;;;17.11;60.44;102247.84;5060810;28;20169;-67
2022/07/17 05:45:55;;;;;;;7.40;4.00;;;;;;;17.35;59.65;102248.88;5060143;28;20461;-67
2022/07/17 05:48:21;;;;;;;9.00;4.77;;;;;;;17.75;57.76;102235.88;5060322;28;20280;-67
2022/07/17 05:50:46;;;;;;;5.73;3.73;;;;;;;18.34;57.04;102230.78;5060605;28;20444;-66
2022/07/17 05:53:12;;;;;;;5.13;3.80;;;;;;;17.97;57.43;102239.50;5060048;28;20526;-67
2022/07/17 05:55:37;;;;;;;4.83;3.80;;;;;;;18.43;56.69;102236.06;5060294;28;20199;-67
2022/07/17 05:58:03;;;;;;;6.00;3.43;;;;;;;18.20;57.45;102237.78;5060854;28;20166;-67
2022/07/17 06:00:29;;;;;;;6.03;4.20;;;;;;;18.07;58.04;102240.41;5060198;28;20217;-66
2022/07/17 06:02:54;;;;;;;6.13;3.60;;;;;;;17.97;57.90;102246.56;5060189;28;20417;-67
2022/07/17 06:05:19;;;;;;;7.63;3.90;;;;;;;18.68;56.58;102238.72;5060284;28;20533;-66
2022/07/17 06:07:45;;;;;;;6.87;3.73;;;;;;;19.55;53.48;102236.78;5059886;28;20169;-67
2022/07/17 06:10:10;;;;;;;4.03;3.50;;;;;;;19.05;54.54;102241.38;5059990;28;20312;-66
2022/07/17 06:12:35;;;;;;;4.60;3.70;;;;;;;19.62;53.57;102246.50;5060163;28;20523;-67
2022/07/17 06:15:01;;;;;;;5.83;3.57;;;;;;;19.56;53.35;102253.56;5059606;28;20219;-67
2022/07/17 06:17:28;;;;;;;5.53;3.40;;;;;;;18.96;53.34;102246.66;5059667;28;20165;-67
2022/07/17 06:19:53;;;;;;;5.13;3.50;;;;;;;18.12;55.72;102259.78;5059753;28;20386;-67
2022/07/17 06:22:19;;;;;;;5.37;3.20;;;;;;;18.08;55.61;102263.28;5059672;28;20466;-66
2022/07/17 06:24:45;;;;;;;5.13;3.77;;;;;;;17.71;56.54;102265.78;5059474;28;20271;-66
2022/07/17 06:27:11;;;;;;;5.83;3.37;;;;;;;18.31;55.16;102265.97;5059832;28;20176;-66
2022/07/17 06:29:36;;;;;;;7.83;4.00;;;;;;;18.63;54.68;102272.16;5059377;28;20451;-67
2022/07/17 06:32:02;;;;;;;6.27;3.23;;;;;;;18.66;54.54;102266.91;5059318;28;20223;-67
2022/07/17 06:34:27;;;;;;;4.37;3.53;;;;;;;18.81;54.01;102273.94;5059836;28;20170;-66
2022/07/17 06:36:52;;;;;;;7.97;3.70;;;;;;;18.68;53.78;102270.41;5059441;28;20170;-67
2022/07/17 06:39:18;;;;;;;5.50;3.40;;;;;;;18.38;54.86;102277.41;5058645;28;20184;-66
2022/07/17 06:41:43;;;;;;;5.90;3.23;;;;;;;18.27;55.30;102281.81;5059729;28;20197;-67
2022/07/17 06:44:08;;;;;;;5.63;3.87;;;;;;;18.37;55.16;102275.66;5059307;28;20412;-66
2022/07/17 06:46:34;;;;;;;5.77;3.70;;;;;;;18.75;54.49;102280.09;5059318;28;20204;-67
2022/07/17 06:48:59;;;;;;;6.43;3.70;;;;;;;18.40;54.81;102288.88;5059424;28;20170;-66
2022/07/17 06:51:24;;;;;;;5.70;3.50;;;;;;;18.85;53.43;102278.34;5059100;28;20201;-66
2022/07/17 06:53:50;;;;;;;7.40;3.47;;;;;;;19.82;51.09;102275.53;5058697;28;20213;-66
2022/07/17 06:56:15;;;;;;;6.37;3.50;;;;;;;21.07;47.57;102279.13;5059411;28;20240;-67
2022/07/17 06:58:40;;;;;;;4.53;3.23;;;;;;;20.27;49.58;102279.69;5059070;28;20174;-67
2022/07/17 07:01:06;;;;;;;5.00;3.20;;;;;;;19.46;51.90;102285.34;5058939;28;20186;-67
2022/07/17 07:03:31;;;;;;;4.93;3.17;;;;;;;19.54;51.87;102285.31;5059642;28;20170;-67
2022/07/17 07:05:57;;;;;;;4.20;3.13;;;;;;;19.78;51.41;102294.94;5059167;28;20499;-67
2022/07/17 07:08:23;;;;;;;7.60;3.83;;;;;;;21.09;47.75;102290.56;5058919;28;20165;-66
2022/07/17 07:10:49;;;;;;;6.17;3.47;;;;;;;20.99;48.81;102287.13;5059009;28;20193;-66
2022/07/17 07:13:14;;;;;;;4.77;3.20;;;;;;;22.59;44.72;102279.91;5058545;28;20859;-67
2022/07/17 07:15:39;;;;;;;5.50;3.33;;;;;;;23.79;41.82;102279.50;5058511;28;20177;-67
2022/07/17 07:18:05;;;;;;;7.40;3.80;;;;;;;24.97;40.03;102281.19;5059127;28;20197;-66
2022/07/17 07:20:30;;;;;;;5.10;3.20;;;;;;;25.75;37.99;102269.25;5058725;28;20181;-68
2022/07/17 07:22:55;;;;;;;6.23;3.03;;;;;;;24.66;40.05;102273.09;5058533;28;20165;-66
2022/07/17 07:25:21;;;;;;;7.20;3.30;;;;;;;24.56;40.38;102269.75;5058811;28;20162;-67
2022/07/17 07:27:47;;;;;;;6.53;3.27;;;;;;;25.48;38.59;102260.25;5058384;28;20172;-68
2022/07/17 07:30:12;;;;;;;3.90;2.70;;;;;;;26.40;36.96;102267.28;5058356;28;20197;-67
2022/07/17 07:32:38;;;;;;;5.87;3.20;;;;;;;26.07;36.96;102274.56;5058043;28;20342;-67
2022/07/17 07:35:05;;;;;;;4.67;2.60;;;;;;;25.38;38.79;102283.66;5058330;28;20240;-67
2022/07/17 07:37:31;;;;;;;3.63;3.03;;;;;;;24.50;40.22;102286.75;5058354;28;20427;-67
2022/07/17 07:39:56;;;;;;;4.07;3.10;;;;;;;23.87;41.62;102296.19;5058660;28;20401;-66
2022/07/17 07:42:21;;;;;;;5.67;3.20;;;;;;;25.62;38.20;102290.09;5058167;28;20292;-67
2022/07/17 07:44:47;;;;;;;5.17;3.03;;;;;;;24.99;39.00;102294.47;5058064;28;20196;-67
2022/07/17 07:47:13;;;;;;;4.67;3.50;;;;;;;24.92;39.24;102295.56;5058556;28;20472;-66
2022/07/17 07:49:38;;;;;;;5.03;3.40;;;;;;;22.96;43.13;102296.13;5058089;28;20194;-67
2022/07/17 07:52:04;;;;;;;4.80;3.23;;;;;;;22.42;43.94;102301.41;5057987;28;20828;-66
2022/07/17 07:54:30;;;;;;;6.73;3.47;;;;;;;24.04;41.54;102288.72;5058051;28;20249;-67
2022/07/17 07:56:55;;;;;;;5.90;3.07;;;;;;;23.78;41.82;102291.91;5057940;28;20170;-66
2022/07/17 07:59:20;;;;;;;5.03;2.93;;;;;;;22.77;43.57;102297.31;5058168;28;20717;-67
2022/07/17 08:01:46;;;;;;;5.43;3.00;;;;;;;24.08;40.76;102294.84;5057793;28;20550;-68
2022/07/17 08:04:11;;;;;;;7.13;3.50;;;;;;;22.42;43.39;102304.06;5057738;28;20257;-66
2022/07/17 08:06:38;;;;;;;7.33;2.97;;;;;;;24.85;39.43;102302.84;5058583;28;20215;-68
2022/07/17 08:09:03;;;;;;;6.77;3.40;;;;;;;25.34;37.98;102296.25;5058028;28;20236;-67
2022/07/17 08:11:29;;;;;;;4.97;3.40;;;;;;;24.30;40.49;102302.34;5057724;28;20460;-66
2022/07/17 08:13:54;;;;;;;6.27;3.00;;;;;;;23.48;41.60;102310.25;5058104;28;20185;-67
2022/07/17 08:16:19;;;;;;;5.20;2.93;;;;;;;22.47;43.91;102326.16;5057744;28;20165;-66
2022/07/17 08:18:45;;;;;;;5.73;3.20;;;;;;;23.24;42.36;102324.03;5057814;28;20245;-67
2022/07/17 08:21:10;;;;;;;8.10;3.83;;;;;;;24.02;40.44;102316.31;5058057;28;20173;-67
2022/07/17 08:23:36;;;;;;;4.70;3.50;;;;;;;24.10;40.09;102314.34;5057774;28;20201;-67
2022/07/17 08:26:02;;;;;;;5.30;3.43;;;;;;;25.00;38.32;102325.56;5057696;28;20169;-66
2022/07/17 08:28:27;;;;;;;5.33;3.50;;;;;;;23.23;41.80;102325.81;5057979;28;20197;-66
2022/07/17 08:30:53;;;;;;;4.23;3.20;;;;;;;22.47;43.49;102347.41;5057732;28;20915;-66
2022/07/17 08:33:18;;;;;;;7.17;3.63;;;;;;;23.28;41.91;102334.59;5057493;28;20188;-67
2022/07/17 08:35:43;;;;;;;7.53;3.63;;;;;;;22.58;43.26;102342.78;5057922;28;20162;-66
2022/07/17 08:38:09;;;;;;;5.23;3.37;;;;;;;23.88;41.55;102336.13;5057458;28;20169;-66
2022/07/17 08:40:36;;;;;;;6.00;3.80;;;;;;;23.48;41.70;102342.19;5057448;28;20557;-67
2022/07/17 08:43:04;;;;;;;5.37;3.20;;;;;;;23.40;41.60;102337.94;5057719;28;20169;-66
2022/07/17 08:45:29;;;;;;;5.00;3.00;;;;;;;24.73;39.62;102329.81;5060302;28;20463;-66
2022/07/17 08:47:56;;;;;;;9.43;3.40;;;;;;;25.66;37.66;102328.28;5061337;28;20408;-68
2022/07/17 08:50:27;;;;;;;4.60;2.83;;;;;;;26.40;36.78;102326.09;5060805;28;20208;-68
2022/07/17 08:52:53;;;;;;;4.67;3.20;;;;;;;24.65;39.07;102332.66;5061070;28;20408;-68
2022/07/17 08:55:18;;;;;;;4.50;3.50;;;;;;;23.73;41.81;102336.38;5061037;28;20825;-67
2022/07/17 08:57:45;;;;;;;4.40;3.17;;;;;;;22.71;43.86;102348.81;5061727;28;20176;-69
2022/07/17 09:00:14;;;;;;;4.10;3.20;;;;;;;22.85;42.98;102343.28;5060140;28;20174;-67
2022/07/17 09:02:39;;;;;;;5.07;3.30;;;;;;;24.79;39.00;102338.56;5060930;28;20541;-67
2022/07/17 09:05:06;;;;;;;5.17;2.97;;;;;;;25.37;37.34;102332.63;5061305;28;20832;-66
2022/07/17 09:07:32;;;;;;;3.20;2.77;;;;;;;25.64;36.09;102333.69;5061306;28;20542;-67
2022/07/17 09:09:58;;;;;;;6.07;3.30;;;;;;;25.47;37.10;102333.28;5060325;28;20459;-67
2022/07/17 09:12:29;;;;;;;5.70;2.90;;;;;;;24.92;38.16;102341.78;5061122;28;20254;-66
2022/07/17 09:14:56;;;;;;;5.50;3.00;;;;;;;24.15;38.94;102339.13;5060712;28;20454;-67
2022/07/17 09:17:22;;;;;;;5.77;3.13;;;;;;;24.83;38.04;102334.88;5059761;28;20422;-66
2022/07/17 09:19:48;;;;;;;4.87;3.10;;;;;;;25.88;35.67;102331.19;5060962;28;20404;-67
2022/07/17 09:22:15;;;;;;;5.40;3.60;;;;;;;28.64;31.71;102322.53;5060546;28;20419;-67
2022/07/17 09:24:54;;;;;;;7.10;3.30;;;;;;;27.85;32.38;102320.25;5060568;28;20197;-68
2022/07/17 09:27:22;;;;;;;4.70;3.60;;;;;;;29.46;29.57;102309.16;5060592;28;20755;-66
2022/07/17 09:29:59;;;;;;;4.67;3.03;;;;;;;28.69;30.48;102317.84;5060478;28;20495;-67
2022/07/17 09:32:27;;;;;;;4.43;2.90;;;;;;;25.35;35.66;102330.00;5060514;28;20821;-68
2022/07/17 09:34:54;;;;;;;3.93;2.53;;;;;;;26.65;34.91;102336.00;5059642;28;20503;-67
2022/07/17 09:37:25;;;;;;;6.47;4.00;;;;;;;27.13;32.22;102331.72;5059542;28;20714;-67
2022/07/17 09:39:51;;;;;;;4.20;2.77;;;;;;;28.03;31.12;102318.69;5060348;28;20400;-66
2022/07/17 09:42:22;;;;;;;4.80;2.90;;;;;;;28.79;30.24;102323.69;5060700;28;20400;-68
2022/07/17 09:44:58;;;;;;;2.73;2.20;;;;;;;28.31;30.90;102328.31;5059932;28;20428;-68
2022/07/17 09:47:24;;;;;;;3.43;2.60;;;;;;;28.43;31.31;102322.47;5060098;28;20408;-68
2022/07/17 09:49:52;;;;;;;5.10;2.60;;;;;;;29.15;30.02;102315.88;5060139;28;20454;-68
2022/07/17 09:52:17;;;;;;;3.33;2.60;;;;;;;28.06;31.94;102313.19;5059428;28;20493;-68
2022/07/17 09:54:44;;;;;;;3.80;3.07;;;;;;;27.44;32.80;102320.84;5058604;28;20552;-69
2022/07/17 09:57:10;;;;;;;4.20;2.77;;;;;;;28.63;30.64;102326.13;5059353;28;20212;-68
2022/07/17 09:59:37;;;;;;;4.90;2.70;;;;;;;28.09;30.49;102323.81;5059821;28;20455;-67
2022/07/17 10:02:02;;;;;;;4.03;2.40;;;;;;;27.75;31.65;102322.38;5059847;28;20416;-68
2022/07/17 10:04:28;;;;;;;3.87;2.83;;;;;;;28.05;31.68;102316.81;5059656;28;20412;-67
2022/07/17 10:06:54;;;;;;;4.80;3.00;;;;;;;29.00;30.10;102314.72;5060094;28;20516;-66
2022/07/17 10:09:19;;;;;;;3.80;2.53;;;;;;;29.05;30.40;102309.13;5059167;28;20169;-67
2022/07/17 10:11:45;;;;;;;3.33;2.43;;;;;;;26.30;34.47;102329.97;5059432;28;20217;-68
2022/07/17 10:14:11;;;;;;;5.03;2.50;;;;;;;25.92;35.55;102327.50;5059805;28;20575;-67
2022/07/17 10:16:38;;;;;;;4.63;2.40;;;;;;;27.84;32.34;102321.16;5059626;28;20259;-67
2022/07/17 10:19:18;;;;;;;4.07;2.80;;;;;;;27.50;32.08;102328.66;5059516;28;20416;-71
2022/07/17 10:21:57;;;;;;;5.03;2.60;;;;;;;28.38;31.09;102319.09;5059722;28;20465;-70
2022/07/17 10:24:23;;;;;;;4.27;2.40;;;;;;;28.96;29.16;102312.25;5059575;28;20408;-70
2022/07/17 10:26:49;;;;;;;4.27;2.73;;;;;;;29.07;29.77;102310.81;5059560;28;20469;-70
2022/07/17 10:29:38;;;;;;;3.03;2.43;;;;;;;28.77;30.73;102310.34;5059331;28;20719;-67
2022/07/17 10:32:24;;;;;;;4.80;3.03;;;;;;;29.40;29.69;102304.06;5059174;28;20462;-66
2022/07/17 10:34:58;;;;;;;3.20;2.40;;;;;;;29.21;29.88;102315.59;5058886;28;20423;-67
2022/07/17 10:37:24;;;;;;;3.33;2.10;;;;;;;29.02;29.46;102309.28;5059460;28;20861;-66
2022/07/17 10:40:07;;;;;;;3.73;2.70;;;;;;;28.25;30.00;102307.09;5059205;28;20817;-66
2022/07/17 10:42:38;;;;;;;5.43;3.30;;;;;;;27.13;32.09;102321.03;5059183;28;20495;-66
2022/07/17 10:45:08;;;;;;;5.30;2.70;;;;;;;28.37;30.05;102304.81;5058892;28;20458;-65
2022/07/17 10:47:48;;;;;;;3.80;2.47;;;;;;;28.46;30.49;102306.22;5059119;28;20879;-68
2022/07/17 10:50:14;;;;;;;3.03;2.73;;;;;;;29.50;29.25;102300.00;5059053;28;20857;-69
2022/07/17 10:52:39;;;;;;;4.67;2.57;;;;;;;29.71;29.21;102302.66;5058791;28;20513;-68
2022/07/17 10:55:06;;;;;;;2.73;2.30;;;;;;;28.27;30.86;102308.78;5058697;28;20491;-69
2022/07/17 10:57:32;;;;;;;4.97;2.90;;;;;;;28.94;30.24;102306.91;5059345;28;20161;-68
2022/07/17 10:59:57;;;;;;;3.67;2.63;;;;;;;28.84;28.84;102303.78;5059016;28;20408;-68
2022/07/17 11:02:29;;;;;;;4.53;2.50;;;;;;;29.07;28.75;102304.59;5058862;28;20435;-67
2022/07/17 11:05:25;;;;;;;4.90;2.87;;;;;;;27.77;31.00;102309.81;5058885;28;20536;-68
2022/07/17 11:07:58;;;;;;;2.83;2.40;;;;;;;28.39;30.04;102300.25;5057828;28;20432;-68
2022/07/17 11:10:25;;;;;;;3.60;2.30;;;;;;;27.21;32.21;102297.53;5058876;28;20471;-67
2022/07/17 11:12:51;;;;;;;3.30;2.73;;;;;;;27.90;31.41;102297.69;5058775;28;20412;-68
2022/07/17 11:15:17;;;;;;;2.60;2.20;;;;;;;27.79;30.65;102294.53;5058491;28;20420;-68
2022/07/17 11:17:49;;;;;;;2.57;2.27;;;;;;;27.36;31.55;102299.69;5058802;28;20651;-67
2022/07/17 11:20:15;;;;;;;3.03;2.40;;;;;;;27.90;31.13;102307.50;5058487;28;20184;-67